sensor_id;sensor_type;location;lat;lon;timestamp;temperature;humidity
9446;DHT22;4761;49.490;10.908;2023-12-20T00:00:02;16.30;48.60
9446;DHT22;4761;49.490;10.908;2023-12-20T00:02:28;16.30;48.60
9446;DHT22;4761;49.490;10.908;2023-12-20T00:04:53;16.40;48.70
9446;DHT22;4761;49.490;10.908;2023-12-20T00:07:19;16.40;48.80
9446;DHT22;4761;49.490;10.908;2023-12-20T00:09:44;16.40;48.70
9446;DHT22;4761;49.490;10.908;2023-12-20T00:12:10;16.40;48.70
9446;DHT22;4761;49.490;10.908;2023-12-20T00:14:36;16.40;48.70
9446;DHT22;4761;49.490;10.908;2023-12-20T00:17:01;16.40;48.80
9446;DHT22;4761;49.490;10.908;2023-12-20T00:19:27;16.50;48.80
9446;DHT22;4761;49.490;10.908;2023-12-20T00:21:52;16.50;48.80
9446;DHT22;4761;49.490;10.908;2023-12-20T00:24:18;16.50;48.80
9446;DHT22;4761;49.490;10.908;2023-12-20T00:26:43;16.50;48.80
9446;DHT22;4761;49.490;10.908;2023-12-20T00:29:09;16.50;48.80
9446;DHT22;4761;49.490;10.908;2023-12-20T00:31:34;16.50;48.80
9446;DHT22;4761;49.490;10.908;2023-12-20T00:34:00;16.50;48.80
9446;DHT22;4761;49.490;10.908;2023-12-20T00:36:25;16.50;48.80
9446;DHT22;4761;49.490;10.908;2023-12-20T00:38:51;16.50;48.80
9446;DHT22;4761;49.490;10.908;2023-12-20T00:41:17;16.40;48.80
9446;DHT22;4761;49.490;10.908;2023-12-20T00:43:42;16.40;48.90
9446;DHT22;4761;49.490;10.908;2023-12-20T00:46:08;16.40;49.00
9446;DHT22;4761;49.490;10.908;2023-12-20T00:48:33;16.40;49.10
9446;DHT22;4761;49.490;10.908;2023-12-20T00:50:59;16.40;49.20
9446;DHT22;4761;49.490;10.908;2023-12-20T00:53:24;16.40;49.20
9446;DHT22;4761;49.490;10.908;2023-12-20T00:55:50;16.40;49.20
9446;DHT22;4761;49.490;10.908;2023-12-20T00:58:15;16.40;49.20
9446;DHT22;4761;49.490;10.908;2023-12-20T01:00:41;16.40;49.20
9446;DHT22;4761;49.490;10.908;2023-12-20T01:03:08;16.40;49.30
9446;DHT22;4761;49.490;10.908;2023-12-20T01:05:33;16.40;49.30
9446;DHT22;4761;49.490;10.908;2023-12-20T01:07:59;16.40;49.40
9446;DHT22;4761;49.490;10.908;2023-12-20T01:10:25;16.40;49.40
9446;DHT22;4761;49.490;10.908;2023-12-20T01:12:53;16.40;49.50
9446;DHT22;4761;49.490;10.908;2023-12-20T01:15:19;16.40;49.50
9446;DHT22;4761;49.490;10.908;2023-12-20T01:17:44;16.40;49.50
9446;DHT22;4761;49.490;10.908;2023-12-20T01:20:10;16.40;49.50
9446;DHT22;4761;49.490;10.908;2023-12-20T01:22:35;16.40;49.50
9446;DHT22;4761;49.490;10.908;2023-12-20T01:25:01;16.40;49.50
9446;DHT22;4761;49.490;10.908;2023-12-20T01:27:28;16.40;49.50
9446;DHT22;4761;49.490;10.908;2023-12-20T01:29:53;16.40;49.50
9446;DHT22;4761;49.490;10.908;2023-12-20T01:32:19;16.40;49.50
9446;DHT22;4761;49.490;10.908;2023-12-20T01:34:45;16.30;49.50
9446;DHT22;4761;49.490;10.908;2023-12-20T01:37:10;16.30;49.50
9446;DHT22;4761;49.490;10.908;2023-12-20T01:39:36;16.30;49.50
9446;DHT22;4761;49.490;10.908;2023-12-20T01:42:01;16.30;49.50
9446;DHT22;4761;49.490;10.908;2023-12-20T01:44:27;16.40;49.60
9446;DHT22;4761;49.490;10.908;2023-12-20T01:46:53;16.40;49.60
9446;DHT22;4761;49.490;10.908;2023-12-20T01:49:19;16.40;49.60
9446;DHT22;4761;49.490;10.908;2023-12-20T01:51:45;16.40;49.60
9446;DHT22;4761;49.490;10.908;2023-12-20T01:54:11;16.30;49.50
9446;DHT22;4761;49.490;10.908;2023-12-20T01:56:37;16.40;49.70
9446;DHT22;4761;49.490;10.908;2023-12-20T01:59:03;16.30;49.60
9446;DHT22;4761;49.490;10.908;2023-12-20T02:01:30;16.30;49.60
9446;DHT22;4761;49.490;10.908;2023-12-20T02:03:56;16.30;49.60
9446;DHT22;4761;49.490;10.908;2023-12-20T02:06:23;16.30;49.50
9446;DHT22;4761;49.490;10.908;2023-12-20T02:08:50;16.30;49.50
9446;DHT22;4761;49.490;10.908;2023-12-20T02:11:16;16.30;49.50
9446;DHT22;4761;49.490;10.908;2023-12-20T02:13:41;16.30;49.60
9446;DHT22;4761;49.490;10.908;2023-12-20T02:16:07;16.30;49.60
9446;DHT22;4761;49.490;10.908;2023-12-20T02:18:33;16.30;49.90
9446;DHT22;4761;49.490;10.908;2023-12-20T02:20:59;16.30;49.60
9446;DHT22;4761;49.490;10.908;2023-12-20T02:23:24;16.30;49.60
9446;DHT22;4761;49.490;10.908;2023-12-20T02:25:50;16.30;49.60
9446;DHT22;4761;49.490;10.908;2023-12-20T02:28:16;16.30;49.60
9446;DHT22;4761;49.490;10.908;2023-12-20T02:30:41;16.30;49.60
9446;DHT22;4761;49.490;10.908;2023-12-20T02:33:08;16.30;49.50
9446;DHT22;4761;49.490;10.908;2023-12-20T02:35:36;16.30;49.60
9446;DHT22;4761;49.490;10.908;2023-12-20T02:38:02;16.30;49.60
9446;DHT22;4761;49.490;10.908;2023-12-20T02:40:27;16.30;49.60
9446;DHT22;4761;49.490;10.908;2023-12-20T02:42:53;16.30;49.60
9446;DHT22;4761;49.490;10.908;2023-12-20T02:45:19;16.30;49.50
9446;DHT22;4761;49.490;10.908;2023-12-20T02:47:44;16.30;49.50
9446;DHT22;4761;49.490;10.908;2023-12-20T02:50:10;16.30;49.50
9446;DHT22;4761;49.490;10.908;2023-12-20T02:52:35;16.30;49.50
9446;DHT22;4761;49.490;10.908;2023-12-20T02:55:01;16.30;49.50
9446;DHT22;4761;49.490;10.908;2023-12-20T02:57:26;16.30;49.50
9446;DHT22;4761;49.490;10.908;2023-12-20T02:59:52;16.30;49.50
9446;DHT22;4761;49.490;10.908;2023-12-20T03:02:17;16.20;49.40
9446;DHT22;4761;49.490;10.908;2023-12-20T03:04:43;16.30;49.40
9446;DHT22;4761;49.490;10.908;2023-12-20T03:07:08;16.30;49.40
9446;DHT22;4761;49.490;10.908;2023-12-20T03:09:34;16.30;49.40
9446;DHT22;4761;49.490;10.908;2023-12-20T03:11:59;16.20;49.30
9446;DHT22;4761;49.490;10.908;2023-12-20T03:14:25;16.20;49.20
9446;DHT22;4761;49.490;10.908;2023-12-20T03:16:50;16.20;49.20
9446;DHT22;4761;49.490;10.908;2023-12-20T03:19:18;16.20;49.20
9446;DHT22;4761;49.490;10.908;2023-12-20T03:21:44;16.20;49.20
9446;DHT22;4761;49.490;10.908;2023-12-20T03:24:09;16.20;49.20
9446;DHT22;4761;49.490;10.908;2023-12-20T03:26:35;16.30;49.20
9446;DHT22;4761;49.490;10.908;2023-12-20T03:29:00;16.20;49.10
9446;DHT22;4761;49.490;10.908;2023-12-20T03:31:26;16.20;49.10
9446;DHT22;4761;49.490;10.908;2023-12-20T03:33:51;16.20;49.10
9446;DHT22;4761;49.490;10.908;2023-12-20T03:36:19;16.20;49.10
9446;DHT22;4761;49.490;10.908;2023-12-20T03:38:44;16.20;49.00
9446;DHT22;4761;49.490;10.908;2023-12-20T03:41:10;16.20;49.00
9446;DHT22;4761;49.490;10.908;2023-12-20T03:43:35;16.20;49.00
9446;DHT22;4761;49.490;10.908;2023-12-20T03:46:02;16.20;49.00
9446;DHT22;4761;49.490;10.908;2023-12-20T03:48:29;16.20;49.00
9446;DHT22;4761;49.490;10.908;2023-12-20T03:50:55;16.20;49.00
9446;DHT22;4761;49.490;10.908;2023-12-20T03:53:20;16.20;49.00
9446;DHT22;4761;49.490;10.908;2023-12-20T03:55:45;16.20;49.00
9446;DHT22;4761;49.490;10.908;2023-12-20T03:58:11;16.20;49.00
9446;DHT22;4761;49.490;10.908;2023-12-20T04:00:36;16.20;49.00
9446;DHT22;4761;49.490;10.908;2023-12-20T04:03:02;16.20;48.90
9446;DHT22;4761;49.490;10.908;2023-12-20T04:05:28;16.20;48.90
9446;DHT22;4761;49.490;10.908;2023-12-20T04:07:53;16.20;48.80
9446;DHT22;4761;49.490;10.908;2023-12-20T04:10:19;16.20;48.80
9446;DHT22;4761;49.490;10.908;2023-12-20T04:12:44;16.20;48.80
9446;DHT22;4761;49.490;10.908;2023-12-20T04:15:10;16.20;48.80
9446;DHT22;4761;49.490;10.908;2023-12-20T04:17:37;16.20;48.90
9446;DHT22;4761;49.490;10.908;2023-12-20T04:20:03;16.20;48.80
9446;DHT22;4761;49.490;10.908;2023-12-20T04:22:28;16.20;48.70
9446;DHT22;4761;49.490;10.908;2023-12-20T04:24:54;16.30;48.70
9446;DHT22;4761;49.490;10.908;2023-12-20T04:27:19;16.30;48.70
9446;DHT22;4761;49.490;10.908;2023-12-20T04:29:45;16.30;48.70
9446;DHT22;4761;49.490;10.908;2023-12-20T04:32:10;16.30;48.60
9446;DHT22;4761;49.490;10.908;2023-12-20T04:34:36;16.40;48.60
9446;DHT22;4761;49.490;10.908;2023-12-20T04:37:02;16.40;48.50
9446;DHT22;4761;49.490;10.908;2023-12-20T04:39:27;16.30;48.40
9446;DHT22;4761;49.490;10.908;2023-12-20T04:41:53;16.30;48.40
9446;DHT22;4761;49.490;10.908;2023-12-20T04:44:18;16.30;48.40
9446;DHT22;4761;49.490;10.908;2023-12-20T04:46:44;16.30;48.50
9446;DHT22;4761;49.490;10.908;2023-12-20T04:49:09;16.30;48.50
9446;DHT22;4761;49.490;10.908;2023-12-20T04:51:35;16.30;48.50
9446;DHT22;4761;49.490;10.908;2023-12-20T04:54:01;16.30;48.50
9446;DHT22;4761;49.490;10.908;2023-12-20T04:56:27;16.30;48.40
9446;DHT22;4761;49.490;10.908;2023-12-20T04:58:53;16.30;48.40
9446;DHT22;4761;49.490;10.908;2023-12-20T05:01:18;16.30;48.40
9446;DHT22;4761;49.490;10.908;2023-12-20T05:03:44;16.30;48.40
9446;DHT22;4761;49.490;10.908;2023-12-20T05:06:10;16.30;48.40
9446;DHT22;4761;49.490;10.908;2023-12-20T05:08:35;16.30;48.40
9446;DHT22;4761;49.490;10.908;2023-12-20T05:11:01;16.30;48.40
9446;DHT22;4761;49.490;10.908;2023-12-20T05:13:26;16.30;48.40
9446;DHT22;4761;49.490;10.908;2023-12-20T05:15:52;16.30;48.40
9446;DHT22;4761;49.490;10.908;2023-12-20T05:18:17;16.30;48.40
9446;DHT22;4761;49.490;10.908;2023-12-20T05:20:43;16.30;48.40
9446;DHT22;4761;49.490;10.908;2023-12-20T05:23:09;16.30;48.30
9446;DHT22;4761;49.490;10.908;2023-12-20T05:25:34;16.30;48.30
9446;DHT22;4761;49.490;10.908;2023-12-20T05:28:00;16.20;48.20
9446;DHT22;4761;49.490;10.908;2023-12-20T05:30:25;16.20;48.20
9446;DHT22;4761;49.490;10.908;2023-12-20T05:32:52;16.20;48.20
9446;DHT22;4761;49.490;10.908;2023-12-20T05:35:17;16.20;48.10
9446;DHT22;4761;49.490;10.908;2023-12-20T05:37:43;16.20;48.20
9446;DHT22;4761;49.490;10.908;2023-12-20T05:40:08;16.20;48.10
9446;DHT22;4761;49.490;10.908;2023-12-20T05:42:37;16.20;48.10
9446;DHT22;4761;49.490;10.908;2023-12-20T05:45:05;16.30;48.20
9446;DHT22;4761;49.490;10.908;2023-12-20T05:47:31;16.20;48.10
9446;DHT22;4761;49.490;10.908;2023-12-20T05:49:57;16.30;48.20
9446;DHT22;4761;49.490;10.908;2023-12-20T05:52:22;16.30;48.10
9446;DHT22;4761;49.490;10.908;2023-12-20T05:54:48;16.30;48.10
9446;DHT22;4761;49.490;10.908;2023-12-20T05:57:13;16.20;48.00
9446;DHT22;4761;49.490;10.908;2023-12-20T05:59:39;16.20;48.00
9446;DHT22;4761;49.490;10.908;2023-12-20T06:02:05;16.20;48.00
9446;DHT22;4761;49.490;10.908;2023-12-20T06:04:30;16.30;48.10
9446;DHT22;4761;49.490;10.908;2023-12-20T06:06:56;16.30;48.10
9446;DHT22;4761;49.490;10.908;2023-12-20T06:09:22;16.30;48.10
9446;DHT22;4761;49.490;10.908;2023-12-20T06:11:47;16.30;48.00
9446;DHT22;4761;49.490;10.908;2023-12-20T06:14:13;16.20;48.00
9446;DHT22;4761;49.490;10.908;2023-12-20T06:16:38;16.20;48.00
9446;DHT22;4761;49.490;10.908;2023-12-20T06:19:04;16.20;48.00
9446;DHT22;4761;49.490;10.908;2023-12-20T06:21:29;16.30;48.10
9446;DHT22;4761;49.490;10.908;2023-12-20T06:23:55;16.20;48.00
9446;DHT22;4761;49.490;10.908;2023-12-20T06:26:20;16.20;48.00
9446;DHT22;4761;49.490;10.908;2023-12-20T06:28:46;16.20;48.00
9446;DHT22;4761;49.490;10.908;2023-12-20T06:31:11;16.20;48.00
9446;DHT22;4761;49.490;10.908;2023-12-20T06:33:37;16.20;48.00
9446;DHT22;4761;49.490;10.908;2023-12-20T06:36:06;16.20;48.00
9446;DHT22;4761;49.490;10.908;2023-12-20T06:38:31;16.20;47.90
9446;DHT22;4761;49.490;10.908;2023-12-20T06:40:57;16.20;48.00
9446;DHT22;4761;49.490;10.908;2023-12-20T06:43:24;16.20;48.00
9446;DHT22;4761;49.490;10.908;2023-12-20T06:45:49;16.20;48.00
9446;DHT22;4761;49.490;10.908;2023-12-20T06:48:15;16.20;48.00
9446;DHT22;4761;49.490;10.908;2023-12-20T06:50:40;16.20;48.00
9446;DHT22;4761;49.490;10.908;2023-12-20T06:53:06;16.20;48.00
9446;DHT22;4761;49.490;10.908;2023-12-20T06:55:35;16.20;48.10
9446;DHT22;4761;49.490;10.908;2023-12-20T06:58:02;16.30;48.10
9446;DHT22;4761;49.490;10.908;2023-12-20T07:00:27;16.30;48.10
9446;DHT22;4761;49.490;10.908;2023-12-20T07:02:53;16.30;48.10
9446;DHT22;4761;49.490;10.908;2023-12-20T07:05:19;16.30;48.10
9446;DHT22;4761;49.490;10.908;2023-12-20T07:07:45;16.30;48.20
9446;DHT22;4761;49.490;10.908;2023-12-20T07:10:12;16.20;48.10
9446;DHT22;4761;49.490;10.908;2023-12-20T07:12:38;16.20;48.10
9446;DHT22;4761;49.490;10.908;2023-12-20T07:15:04;16.40;47.90
9446;DHT22;4761;49.490;10.908;2023-12-20T07:17:32;16.40;48.00
9446;DHT22;4761;49.490;10.908;2023-12-20T07:19:58;16.30;47.90
9446;DHT22;4761;49.490;10.908;2023-12-20T07:22:24;16.30;47.90
9446;DHT22;4761;49.490;10.908;2023-12-20T07:24:49;16.30;48.00
9446;DHT22;4761;49.490;10.908;2023-12-20T07:27:17;16.30;48.00
9446;DHT22;4761;49.490;10.908;2023-12-20T07:29:43;16.30;48.10
9446;DHT22;4761;49.490;10.908;2023-12-20T07:32:08;16.30;48.10
9446;DHT22;4761;49.490;10.908;2023-12-20T07:34:34;16.30;48.10
9446;DHT22;4761;49.490;10.908;2023-12-20T07:36:59;16.20;48.10
9446;DHT22;4761;49.490;10.908;2023-12-20T07:39:25;16.20;48.10
9446;DHT22;4761;49.490;10.908;2023-12-20T07:41:50;16.20;48.10
9446;DHT22;4761;49.490;10.908;2023-12-20T07:44:16;16.20;48.10
9446;DHT22;4761;49.490;10.908;2023-12-20T07:46:41;16.20;48.10
9446;DHT22;4761;49.490;10.908;2023-12-20T07:49:07;16.20;48.10
9446;DHT22;4761;49.490;10.908;2023-12-20T07:51:33;16.20;48.20
9446;DHT22;4761;49.490;10.908;2023-12-20T07:53:59;16.20;48.20
9446;DHT22;4761;49.490;10.908;2023-12-20T07:56:25;16.20;48.20
9446;DHT22;4761;49.490;10.908;2023-12-20T07:58:50;16.20;48.20
9446;DHT22;4761;49.490;10.908;2023-12-20T08:01:16;16.20;48.30
9446;DHT22;4761;49.490;10.908;2023-12-20T08:03:43;16.20;48.20
9446;DHT22;4761;49.490;10.908;2023-12-20T08:06:09;16.20;48.30
9446;DHT22;4761;49.490;10.908;2023-12-20T08:08:34;16.20;48.30
9446;DHT22;4761;49.490;10.908;2023-12-20T08:11:00;16.20;48.30
9446;DHT22;4761;49.490;10.908;2023-12-20T08:13:26;16.20;48.30
9446;DHT22;4761;49.490;10.908;2023-12-20T08:15:52;16.20;48.30
9446;DHT22;4761;49.490;10.908;2023-12-20T08:18:18;16.20;48.40
9446;DHT22;4761;49.490;10.908;2023-12-20T08:20:43;16.20;48.40
9446;DHT22;4761;49.490;10.908;2023-12-20T08:23:09;16.20;48.40
9446;DHT22;4761;49.490;10.908;2023-12-20T08:25:34;16.20;48.50
9446;DHT22;4761;49.490;10.908;2023-12-20T08:28:02;16.20;48.50
9446;DHT22;4761;49.490;10.908;2023-12-20T08:30:28;16.20;48.50
9446;DHT22;4761;49.490;10.908;2023-12-20T08:32:54;16.20;48.50
9446;DHT22;4761;49.490;10.908;2023-12-20T08:35:20;16.20;48.50
9446;DHT22;4761;49.490;10.908;2023-12-20T08:37:46;16.20;48.60
9446;DHT22;4761;49.490;10.908;2023-12-20T08:40:11;16.20;48.60
9446;DHT22;4761;49.490;10.908;2023-12-20T08:42:37;16.20;48.50
9446;DHT22;4761;49.490;10.908;2023-12-20T08:45:02;16.30;48.60
9446;DHT22;4761;49.490;10.908;2023-12-20T08:47:29;16.30;48.60
9446;DHT22;4761;49.490;10.908;2023-12-20T08:49:55;16.30;48.60
9446;DHT22;4761;49.490;10.908;2023-12-20T08:52:22;16.30;48.50
9446;DHT22;4761;49.490;10.908;2023-12-20T08:54:49;16.30;48.50
9446;DHT22;4761;49.490;10.908;2023-12-20T08:57:18;16.40;48.50
9446;DHT22;4761;49.490;10.908;2023-12-20T08:59:43;16.40;48.40
9446;DHT22;4761;49.490;10.908;2023-12-20T09:02:09;16.30;48.30
9446;DHT22;4761;49.490;10.908;2023-12-20T09:04:34;16.30;48.30
9446;DHT22;4761;49.490;10.908;2023-12-20T09:07:00;16.30;48.30
9446;DHT22;4761;49.490;10.908;2023-12-20T09:09:26;16.30;48.40
9446;DHT22;4761;49.490;10.908;2023-12-20T09:11:52;16.30;48.40
9446;DHT22;4761;49.490;10.908;2023-12-20T09:14:17;16.30;48.40
9446;DHT22;4761;49.490;10.908;2023-12-20T09:16:43;16.30;48.50
9446;DHT22;4761;49.490;10.908;2023-12-20T09:19:08;16.30;48.60
9446;DHT22;4761;49.490;10.908;2023-12-20T09:21:34;16.40;48.70
9446;DHT22;4761;49.490;10.908;2023-12-20T09:24:00;16.40;48.70
9446;DHT22;4761;49.490;10.908;2023-12-20T09:26:25;16.30;48.60
9446;DHT22;4761;49.490;10.908;2023-12-20T09:28:51;16.30;48.70
9446;DHT22;4761;49.490;10.908;2023-12-20T09:31:16;16.30;48.80
9446;DHT22;4761;49.490;10.908;2023-12-20T09:33:42;16.30;48.80
9446;DHT22;4761;49.490;10.908;2023-12-20T09:36:07;16.30;48.80
9446;DHT22;4761;49.490;10.908;2023-12-20T09:38:33;16.30;48.80
9446;DHT22;4761;49.490;10.908;2023-12-20T09:40:58;16.30;48.80
9446;DHT22;4761;49.490;10.908;2023-12-20T09:43:24;16.30;48.80
9446;DHT22;4761;49.490;10.908;2023-12-20T09:46:00;16.30;48.80
9446;DHT22;4761;49.490;10.908;2023-12-20T09:48:27;16.30;48.70
9446;DHT22;4761;49.490;10.908;2023-12-20T09:50:53;16.30;48.70
9446;DHT22;4761;49.490;10.908;2023-12-20T09:53:19;16.30;48.70
9446;DHT22;4761;49.490;10.908;2023-12-20T09:55:46;16.30;48.70
9446;DHT22;4761;49.490;10.908;2023-12-20T09:58:11;16.30;48.70
9446;DHT22;4761;49.490;10.908;2023-12-20T10:00:37;16.40;48.70
9446;DHT22;4761;49.490;10.908;2023-12-20T10:03:03;16.40;48.70
9446;DHT22;4761;49.490;10.908;2023-12-20T10:05:32;16.40;48.70
9446;DHT22;4761;49.490;10.908;2023-12-20T10:07:59;16.40;48.70
9446;DHT22;4761;49.490;10.908;2023-12-20T10:10:25;16.40;48.70
9446;DHT22;4761;49.490;10.908;2023-12-20T10:13:09;16.40;49.30
9446;DHT22;4761;49.490;10.908;2023-12-20T10:15:36;16.40;48.70
9446;DHT22;4761;49.490;10.908;2023-12-20T10:18:03;16.40;48.70
9446;DHT22;4761;49.490;10.908;2023-12-20T10:20:30;16.40;48.70
9446;DHT22;4761;49.490;10.908;2023-12-20T10:22:56;16.30;48.60
9446;DHT22;4761;49.490;10.908;2023-12-20T10:25:23;16.30;48.70
9446;DHT22;4761;49.490;10.908;2023-12-20T10:27:50;16.30;48.60
9446;DHT22;4761;49.490;10.908;2023-12-20T10:30:15;16.30;48.70
9446;DHT22;4761;49.490;10.908;2023-12-20T10:32:41;16.30;48.60
9446;DHT22;4761;49.490;10.908;2023-12-20T10:35:08;16.30;48.70
9446;DHT22;4761;49.490;10.908;2023-12-20T10:37:37;16.30;48.60
9446;DHT22;4761;49.490;10.908;2023-12-20T10:40:04;16.30;48.70
9446;DHT22;4761;49.490;10.908;2023-12-20T10:42:31;16.30;48.60
9446;DHT22;4761;49.490;10.908;2023-12-20T10:44:59;16.30;48.50
9446;DHT22;4761;49.490;10.908;2023-12-20T10:47:25;16.30;48.40
9446;DHT22;4761;49.490;10.908;2023-12-20T10:49:52;16.30;48.50
9446;DHT22;4761;49.490;10.908;2023-12-20T10:52:18;16.30;48.50
9446;DHT22;4761;49.490;10.908;2023-12-20T10:54:44;16.30;48.40
9446;DHT22;4761;49.490;10.908;2023-12-20T10:57:10;16.30;48.40
9446;DHT22;4761;49.490;10.908;2023-12-20T10:59:37;16.30;48.40
9446;DHT22;4761;49.490;10.908;2023-12-20T11:02:04;16.30;48.40
9446;DHT22;4761;49.490;10.908;2023-12-20T11:05:38;16.30;48.50
9446;DHT22;4761;49.490;10.908;2023-12-20T11:10:26;16.30;48.40
9446;DHT22;4761;49.490;10.908;2023-12-20T11:13:07;16.30;48.40
9446;DHT22;4761;49.490;10.908;2023-12-20T11:15:35;16.30;48.30
9446;DHT22;4761;49.490;10.908;2023-12-20T11:18:01;16.30;48.30
9446;DHT22;4761;49.490;10.908;2023-12-20T11:20:37;16.30;48.30
9446;DHT22;4761;49.490;10.908;2023-12-20T11:23:03;16.30;48.30
9446;DHT22;4761;49.490;10.908;2023-12-20T11:25:29;16.40;48.70
9446;DHT22;4761;49.490;10.908;2023-12-20T11:28:07;16.40;49.10
9446;DHT22;4761;49.490;10.908;2023-12-20T11:30:48;16.40;49.30
9446;DHT22;4761;49.490;10.908;2023-12-20T11:33:15;16.40;49.50
9446;DHT22;4761;49.490;10.908;2023-12-20T11:35:41;16.40;49.60
9446;DHT22;4761;49.490;10.908;2023-12-20T11:38:10;16.30;49.60
9446;DHT22;4761;49.490;10.908;2023-12-20T11:40:36;16.30;49.70
9446;DHT22;4761;49.490;10.908;2023-12-20T11:43:02;16.40;49.90
9446;DHT22;4761;49.490;10.908;2023-12-20T11:45:28;16.30;49.80
9446;DHT22;4761;49.490;10.908;2023-12-20T11:47:54;16.40;50.10
9446;DHT22;4761;49.490;10.908;2023-12-20T11:50:22;16.40;50.10
9446;DHT22;4761;49.490;10.908;2023-12-20T11:52:49;16.40;50.20
9446;DHT22;4761;49.490;10.908;2023-12-20T11:55:15;16.40;50.20
9446;DHT22;4761;49.490;10.908;2023-12-20T11:57:41;16.40;50.20
9446;DHT22;4761;49.490;10.908;2023-12-20T12:00:07;16.40;50.30
9446;DHT22;4761;49.490;10.908;2023-12-20T12:02:33;16.50;50.50
9446;DHT22;4761;49.490;10.908;2023-12-20T12:05:02;16.60;50.80
9446;DHT22;4761;49.490;10.908;2023-12-20T12:07:30;16.80;50.60
9446;DHT22;4761;49.490;10.908;2023-12-20T12:09:55;16.90;50.50
9446;DHT22;4761;49.490;10.908;2023-12-20T12:12:21;17.00;50.50
9446;DHT22;4761;49.490;10.908;2023-12-20T12:14:48;17.10;50.50
9446;DHT22;4761;49.490;10.908;2023-12-20T12:17:14;17.20;50.40
9446;DHT22;4761;49.490;10.908;2023-12-20T12:19:41;17.20;50.30
9446;DHT22;4761;49.490;10.908;2023-12-20T12:22:12;17.30;50.40
9446;DHT22;4761;49.490;10.908;2023-12-20T12:24:43;17.30;50.40
9446;DHT22;4761;49.490;10.908;2023-12-20T12:27:09;17.40;50.50
9446;DHT22;4761;49.490;10.908;2023-12-20T12:29:36;17.40;50.40
9446;DHT22;4761;49.490;10.908;2023-12-20T12:32:06;17.50;50.50
9446;DHT22;4761;49.490;10.908;2023-12-20T12:34:33;17.50;50.50
9446;DHT22;4761;49.490;10.908;2023-12-20T12:36:59;17.50;50.60
9446;DHT22;4761;49.490;10.908;2023-12-20T12:39:25;17.50;50.50
9446;DHT22;4761;49.490;10.908;2023-12-20T12:41:51;17.50;50.40
9446;DHT22;4761;49.490;10.908;2023-12-20T12:44:17;17.60;50.50
9446;DHT22;4761;49.490;10.908;2023-12-20T12:46:46;17.60;50.50
9446;DHT22;4761;49.490;10.908;2023-12-20T12:49:12;17.60;50.50
9446;DHT22;4761;49.490;10.908;2023-12-20T12:51:38;17.60;50.50
9446;DHT22;4761;49.490;10.908;2023-12-20T12:54:03;17.70;50.60
9446;DHT22;4761;49.490;10.908;2023-12-20T12:56:29;17.70;50.50
9446;DHT22;4761;49.490;10.908;2023-12-20T12:58:55;17.70;50.40
9446;DHT22;4761;49.490;10.908;2023-12-20T13:01:21;17.80;50.20
9446;DHT22;4761;49.490;10.908;2023-12-20T13:03:46;17.60;49.90
9446;DHT22;4761;49.490;10.908;2023-12-20T13:06:12;17.60;50.00
9446;DHT22;4761;49.490;10.908;2023-12-20T13:08:38;17.40;50.00
9446;DHT22;4761;49.490;10.908;2023-12-20T13:11:03;17.30;50.10
9446;DHT22;4761;49.490;10.908;2023-12-20T13:13:30;17.20;50.20
9446;DHT22;4761;49.490;10.908;2023-12-20T13:15:56;17.20;50.30
9446;DHT22;4761;49.490;10.908;2023-12-20T13:18:22;17.10;50.40
9446;DHT22;4761;49.490;10.908;2023-12-20T13:20:48;17.10;50.10
9446;DHT22;4761;49.490;10.908;2023-12-20T13:23:14;17.00;49.90
9446;DHT22;4761;49.490;10.908;2023-12-20T13:25:40;17.00;49.90
9446;DHT22;4761;49.490;10.908;2023-12-20T13:28:06;17.00;49.70
9446;DHT22;4761;49.490;10.908;2023-12-20T13:30:31;17.00;49.70
9446;DHT22;4761;49.490;10.908;2023-12-20T13:32:57;17.00;49.60
9446;DHT22;4761;49.490;10.908;2023-12-20T13:35:22;17.00;49.40
9446;DHT22;4761;49.490;10.908;2023-12-20T13:37:48;17.00;49.20
9446;DHT22;4761;49.490;10.908;2023-12-20T13:40:13;17.00;49.20
9446;DHT22;4761;49.490;10.908;2023-12-20T13:42:39;17.00;49.10
9446;DHT22;4761;49.490;10.908;2023-12-20T13:45:06;17.00;48.90
9446;DHT22;4761;49.490;10.908;2023-12-20T13:47:32;17.00;48.80
9446;DHT22;4761;49.490;10.908;2023-12-20T13:49:58;17.00;48.70
9446;DHT22;4761;49.490;10.908;2023-12-20T13:52:23;17.00;48.70
9446;DHT22;4761;49.490;10.908;2023-12-20T13:54:49;16.90;48.50
9446;DHT22;4761;49.490;10.908;2023-12-20T13:57:15;16.90;48.50
9446;DHT22;4761;49.490;10.908;2023-12-20T13:59:40;16.90;48.50
9446;DHT22;4761;49.490;10.908;2023-12-20T14:02:06;16.90;48.40
9446;DHT22;4761;49.490;10.908;2023-12-20T14:04:31;16.90;48.40
9446;DHT22;4761;49.490;10.908;2023-12-20T14:06:57;16.80;48.20
9446;DHT22;4761;49.490;10.908;2023-12-20T14:09:23;16.90;48.20
9446;DHT22;4761;49.490;10.908;2023-12-20T14:11:48;16.80;48.00
9446;DHT22;4761;49.490;10.908;2023-12-20T14:14:14;16.80;48.00
9446;DHT22;4761;49.490;10.908;2023-12-20T14:16:39;16.80;47.90
9446;DHT22;4761;49.490;10.908;2023-12-20T14:19:05;16.80;47.90
9446;DHT22;4761;49.490;10.908;2023-12-20T14:21:33;16.80;47.80
9446;DHT22;4761;49.490;10.908;2023-12-20T14:23:58;16.80;47.80
9446;DHT22;4761;49.490;10.908;2023-12-20T14:26:24;16.70;47.60
9446;DHT22;4761;49.490;10.908;2023-12-20T14:28:50;16.80;47.60
9446;DHT22;4761;49.490;10.908;2023-12-20T14:31:15;16.70;47.50
9446;DHT22;4761;49.490;10.908;2023-12-20T14:33:41;16.70;47.40
9446;DHT22;4761;49.490;10.908;2023-12-20T14:36:07;16.70;47.40
9446;DHT22;4761;49.490;10.908;2023-12-20T14:38:33;16.70;47.30
9446;DHT22;4761;49.490;10.908;2023-12-20T14:40:59;16.70;47.90
9446;DHT22;4761;49.490;10.908;2023-12-20T14:43:25;16.80;47.80
9446;DHT22;4761;49.490;10.908;2023-12-20T14:45:51;16.80;47.70
9446;DHT22;4761;49.490;10.908;2023-12-20T14:48:17;16.80;47.60
9446;DHT22;4761;49.490;10.908;2023-12-20T14:50:43;16.80;47.50
9446;DHT22;4761;49.490;10.908;2023-12-20T14:53:09;16.80;47.60
9446;DHT22;4761;49.490;10.908;2023-12-20T14:55:35;16.70;47.50
9446;DHT22;4761;49.490;10.908;2023-12-20T14:58:00;16.70;47.60
9446;DHT22;4761;49.490;10.908;2023-12-20T15:00:26;16.70;47.50
9446;DHT22;4761;49.490;10.908;2023-12-20T15:02:52;16.70;47.50
9446;DHT22;4761;49.490;10.908;2023-12-20T15:05:19;16.70;47.40
9446;DHT22;4761;49.490;10.908;2023-12-20T15:07:45;16.70;47.40
9446;DHT22;4761;49.490;10.908;2023-12-20T15:10:12;16.70;47.40
9446;DHT22;4761;49.490;10.908;2023-12-20T15:12:37;16.60;47.30
9446;DHT22;4761;49.490;10.908;2023-12-20T15:15:03;16.60;47.30
9446;DHT22;4761;49.490;10.908;2023-12-20T15:17:29;16.60;47.20
9446;DHT22;4761;49.490;10.908;2023-12-20T15:19:55;16.60;47.10
9446;DHT22;4761;49.490;10.908;2023-12-20T15:22:20;16.60;47.00
9446;DHT22;4761;49.490;10.908;2023-12-20T15:24:46;16.60;47.00
9446;DHT22;4761;49.490;10.908;2023-12-20T15:27:12;16.60;46.90
9446;DHT22;4761;49.490;10.908;2023-12-20T15:29:38;16.60;46.90
9446;DHT22;4761;49.490;10.908;2023-12-20T15:32:04;16.60;46.90
9446;DHT22;4761;49.490;10.908;2023-12-20T15:34:30;16.60;46.90
9446;DHT22;4761;49.490;10.908;2023-12-20T15:36:57;16.60;46.80
9446;DHT22;4761;49.490;10.908;2023-12-20T15:39:22;16.60;46.80